METAR Data
IDs: Format: Raw Decoded Include TAF

Data at: 0029 UTC 19 Nov 2018

METAR for:PAOU (Nelson Lagoon Arpt, AK, US)
Text:PAOU 190023Z AUTO 26011KT 7SM -RA SCT018 BKN025 OVC033 05/03 A2958 RMK AO2 RAB01 P0000
Temperature: 5.0°C ( 41°F)
Dewpoint: 3.0°C ( 37°F) [RH = 87%]
Pressure (altimeter):29.58 inches Hg (1001.8 mb)
Winds:from the W (260 degrees) at 13 MPH (11 knots; 5.7 m/s)
Visibility: 7 sm ( 11 km)
Ceiling:2500 feet AGL
Clouds: scattered clouds at 1800 feet AGL, broken clouds at 2500 feet AGL, overcast cloud deck at 3300 feet AGL
Weather:-RA (light rain)
QC Flag:automated observation with no human augmentation
Text:PAOU 190003Z AUTO 27014KT 10SM -RA SCT027 BKN033 06/03 A2958 RMK AO2 RAB01 P0000
Temperature: 6.0°C ( 43°F)
Dewpoint: 3.0°C ( 37°F) [RH = 81%]
Pressure (altimeter):29.58 inches Hg (1001.8 mb)
Winds:from the W (270 degrees) at 16 MPH (14 knots; 7.2 m/s)
Visibility:10 or more sm (16+ km)
Ceiling:3300 feet AGL
Clouds: scattered clouds at 2700 feet AGL, broken clouds at 3300 feet AGL
Weather:-RA (light rain)
QC Flag:automated observation with no human augmentation
Text:PAOU 182356Z AUTO 26014KT 10SM BKN027 BKN035 06/02 A2958 RMK AO2 SLP015 60000 T00610022 10061 20039 51004
Temperature: 6.1°C ( 43°F)
Dewpoint: 2.2°C ( 36°F) [RH = 76%]
Pressure (altimeter):29.58 inches Hg (1001.8 mb) [Sea level pressure: 1001.5 mb]
Winds:from the W (260 degrees) at 16 MPH (14 knots; 7.2 m/s)
Visibility:10 or more sm (16+ km)
Ceiling:2700 feet AGL
Clouds: broken clouds at 2700 feet AGL, broken clouds at 3500 feet AGL
QC Flag:automated observation with no human augmentation
Text:PAOU 182339Z AUTO 27013KT 10SM SCT025 BKN033 06/02 A2958 RMK AO2
Temperature: 6.0°C ( 43°F)
Dewpoint: 2.0°C ( 36°F) [RH = 75%]
Pressure (altimeter):29.58 inches Hg (1001.8 mb)
Winds:from the W (270 degrees) at 15 MPH (13 knots; 6.7 m/s)
Visibility:10 or more sm (16+ km)
Ceiling:3300 feet AGL
Clouds: scattered clouds at 2500 feet AGL, broken clouds at 3300 feet AGL
QC Flag:automated observation with no human augmentation
Text:PAOU 182256Z AUTO 24011KT 10SM FEW016 BKN027 06/03 A2957 RMK AO2 SLP015 T00610028
Temperature: 6.1°C ( 43°F)
Dewpoint: 2.8°C ( 37°F) [RH = 79%]
Pressure (altimeter):29.57 inches Hg (1001.4 mb) [Sea level pressure: 1001.5 mb]
Winds:from the WSW (240 degrees) at 13 MPH (11 knots; 5.7 m/s)
Visibility:10 or more sm (16+ km)
Ceiling:2700 feet AGL
Clouds: few clouds at 1600 feet AGL, broken clouds at 2700 feet AGL
QC Flag:automated observation with no human augmentation
Text:PAOU 182156Z AUTO 25011KT 10SM BKN026 OVC100 06/02 A2957 RMK AO2 SLP014 T00560022
Temperature: 5.6°C ( 42°F)
Dewpoint: 2.2°C ( 36°F) [RH = 79%]
Pressure (altimeter):29.57 inches Hg (1001.4 mb) [Sea level pressure: 1001.4 mb]
Winds:from the WSW (250 degrees) at 13 MPH (11 knots; 5.7 m/s)
Visibility:10 or more sm (16+ km)
Ceiling:2600 feet AGL
Clouds: broken clouds at 2600 feet AGL, overcast cloud deck at 10000 feet AGL
QC Flag:automated observation with no human augmentation
Text:PAOU 182130Z AUTO 22009KT 10SM BKN028 OVC100 04/02 A2957 RMK AO2
Temperature: 4.0°C ( 39°F)
Dewpoint: 2.0°C ( 36°F) [RH = 87%]
Pressure (altimeter):29.57 inches Hg (1001.4 mb)
Winds:from the SW (220 degrees) at 10 MPH (9 knots; 4.6 m/s)
Visibility:10 or more sm (16+ km)
Ceiling:2800 feet AGL
Clouds: broken clouds at 2800 feet AGL, overcast cloud deck at 10000 feet AGL
QC Flag:automated observation with no human augmentation
Text:PAOU 182056Z AUTO 27012KT 10SM FEW030 OVC095 04/01 A2956 RMK AO2 SLP011 60000 T00440011 51007
Temperature: 4.4°C ( 40°F)
Dewpoint: 1.1°C ( 34°F) [RH = 79%]
Pressure (altimeter):29.56 inches Hg (1001.1 mb) [Sea level pressure: 1001.1 mb]
Winds:from the W (270 degrees) at 14 MPH (12 knots; 6.2 m/s)
Visibility:10 or more sm (16+ km)
Ceiling:9500 feet AGL
Clouds: few clouds at 3000 feet AGL, overcast cloud deck at 9500 feet AGL
QC Flag:automated observation with no human augmentation
Text:PAOU 181956Z AUTO 23007KT 10SM SCT032 04/01 A2956 RMK AO2 RAB11E22 SLP011 P0000 T00390011
Temperature: 3.9°C ( 39°F)
Dewpoint: 1.1°C ( 34°F) [RH = 82%]
Pressure (altimeter):29.56 inches Hg (1001.1 mb) [Sea level pressure: 1001.1 mb]
Winds:from the SW (230 degrees) at 8 MPH (7 knots; 3.6 m/s)
Visibility:10 or more sm (16+ km)
Ceiling:at least 12,000 feet AGL
Clouds: scattered clouds at 3200 feet AGL
QC Flag:automated observation with no human augmentation
Text:PAOU 181856Z AUTO 27012KT 10SM BKN035 05/M01 A2956 RMK AO2 RAE15 SLP008 P0000 T00501006
Temperature: 5.0°C ( 41°F)
Dewpoint: -0.6°C ( 31°F) [RH = 67%]
Pressure (altimeter):29.56 inches Hg (1001.1 mb) [Sea level pressure: 1000.8 mb]
Winds:from the W (270 degrees) at 14 MPH (12 knots; 6.2 m/s)
Visibility:10 or more sm (16+ km)
Ceiling:3500 feet AGL
Clouds: broken clouds at 3500 feet AGL
QC Flag:automated observation with no human augmentation

TAF for:PAOU (Nelson Lagoon Arpt, AK, US)
Text:No data found